Time;durP1;ratioP1;P1;durP2;ratioP2;P2;SDS_P1;SDS_P2;PMS_P1;PMS_P2;Temp;Humidity;BMP_temperature;BMP_pressure;BME280_temperature;BME280_humidity;BME280_pressure;Samples;Min_cycle;Max_cycle;Signal;HPM_P1;HPM_P2
2023/06/27 00:00:51;;;;;;;6.63;2.47;;;;;15.20;94592.00;;;;7400808;19;20140;-77
2023/06/27 00:03:18;;;;;;;4.05;1.80;;;;;15.10;94587.00;;;;7401207;19;20144;-78
2023/06/27 00:05:53;;;;;;;4.22;1.60;;;;;15.00;94594.00;;;;7401192;19;20136;-77
2023/06/27 00:08:21;;;;;;;2.33;2.13;;;;;15.00;94586.00;;;;7401644;19;20180;-78
2023/06/27 00:10:55;;;;;;;3.65;2.10;;;;;15.10;94588.00;;;;7401576;19;20604;-79
2023/06/27 00:13:30;;;;;;;6.72;2.08;;;;;15.20;94594.00;;;;7400752;19;20553;-78
2023/06/27 00:16:06;;;;;;;6.22;2.25;;;;;15.10;94589.00;;;;7400501;19;20616;-78
2023/06/27 00:18:34;;;;;;;6.72;2.10;;;;;15.00;94600.00;;;;7402100;19;20136;-78
2023/06/27 00:21:08;;;;;;;6.93;2.40;;;;;14.90;94600.00;;;;7401018;19;20597;-78
2023/06/27 00:23:36;;;;;;;3.65;2.10;;;;;15.00;94604.00;;;;7400315;19;20158;-79
2023/06/27 00:26:12;;;;;;;5.80;2.10;;;;;15.00;94598.00;;;;7400030;19;20136;-79
2023/06/27 00:28:39;;;;;;;7.78;1.95;;;;;14.80;94592.00;;;;7400722;19;20152;-78
2023/06/27 00:31:14;;;;;;;3.15;1.90;;;;;14.70;94601.00;;;;7400024;19;20155;-78
2023/06/27 00:33:42;;;;;;;3.83;2.03;;;;;14.60;94602.00;;;;7400833;19;20166;-78
2023/06/27 00:36:16;;;;;;;5.07;1.70;;;;;14.60;94604.00;;;;7400817;19;20150;-78
2023/06/27 00:38:43;;;;;;;5.18;2.10;;;;;14.50;94611.00;;;;7394222;19;20152;-78
2023/06/27 00:41:18;;;;;;;6.32;1.90;;;;;14.40;94603.00;;;;7395245;19;20152;-78
2023/06/27 00:43:47;;;;;;;4.43;1.90;;;;;14.20;94606.00;;;;7400827;19;20612;-78
2023/06/27 00:46:40;;;;;;;4.10;1.75;;;;;14.20;94603.00;;;;7399448;19;20132;-78
2023/06/27 00:49:16;;;;;;;3.70;1.65;;;;;14.10;94612.00;;;;7399506;19;20171;-78
2023/06/27 00:51:52;;;;;;;5.68;2.00;;;;;14.10;94615.00;;;;7401622;19;20468;-78
2023/06/27 00:54:21;;;;;;;3.17;1.80;;;;;14.20;94607.00;;;;7398855;19;20133;-77
2023/06/27 00:57:03;;;;;;;3.35;1.55;;;;;14.30;94616.00;;;;7398316;19;20265;-78
2023/06/27 00:59:32;;;;;;;7.57;2.75;;;;;14.30;94606.00;;;;7398603;19;20148;-78
2023/06/27 01:02:06;;;;;;;7.30;2.15;;;;;14.20;94603.00;;;;7400710;19;20204;-80
2023/06/27 01:04:34;;;;;;;5.78;1.92;;;;;14.30;94608.00;;;;7400887;19;20125;-79
2023/06/27 01:07:22;;;;;;;5.80;2.03;;;;;14.40;94609.00;;;;7404998;19;20137;-78
2023/06/27 01:09:52;;;;;;;6.57;1.88;;;;;14.40;94612.00;;;;7402035;19;20189;-78
2023/06/27 01:12:39;;;;;;;4.00;2.08;;;;;14.40;94621.00;;;;7404298;19;20489;-78
2023/06/27 01:15:08;;;;;;;5.45;2.30;;;;;14.40;94611.00;;;;7404435;19;20129;-78
2023/06/27 01:17:43;;;;;;;7.50;2.28;;;;;14.50;94619.00;;;;7402398;19;20133;-78
2023/06/27 01:20:12;;;;;;;5.72;1.80;;;;;14.50;94619.00;;;;7404150;19;20481;-79
2023/06/27 01:23:22;;;;;;;4.95;2.00;;;;;14.50;94616.00;;;;7401354;19;20573;-80
2023/06/27 01:26:16;;;;;;;9.25;2.60;;;;;14.50;94622.00;;;;7404425;19;20129;-80
2023/06/27 01:28:50;;;;;;;3.20;2.22;;;;;14.50;94621.00;;;;7405128;19;20140;-78
2023/06/27 01:31:37;;;;;;;4.22;1.90;;;;;14.50;94629.00;;;;7402161;19;20136;-78
2023/06/27 01:34:28;;;;;;;8.52;1.80;;;;;14.40;94624.00;;;;7402952;19;20555;-81
2023/06/27 01:37:06;;;;;;;5.38;2.22;;;;;14.60;94617.00;;;;7402188;19;20152;-79
2023/06/27 01:39:51;;;;;;;2.88;1.83;;;;;14.70;94620.00;;;;7402795;19;20151;-79
2023/06/27 01:42:30;;;;;;;7.00;1.90;;;;;14.50;94617.00;;;;7406576;19;20149;-79
2023/06/27 01:44:59;;;;;;;10.55;2.63;;;;;14.50;94615.00;;;;7407418;19;20162;-79
2023/06/27 01:47:38;;;;;;;3.95;2.20;;;;;14.50;94616.00;;;;7407650;19;20133;-78
2023/06/27 01:50:06;;;;;;;6.25;2.10;;;;;14.40;94613.00;;;;7407979;19;20605;-78
2023/06/27 01:52:41;;;;;;;9.60;2.22;;;;;14.30;94615.00;;;;7403020;19;20144;-78
2023/06/27 01:55:15;;;;;;;6.15;2.50;;;;;14.10;94617.00;;;;7403362;19;20161;-79
2023/06/27 01:57:50;;;;;;;4.72;2.22;;;;;14.10;94611.00;;;;7406143;19;20156;-79
2023/06/27 02:00:26;;;;;;;5.35;2.35;;;;;13.90;94612.00;;;;7404494;19;20153;-80
2023/06/27 02:02:54;;;;;;;5.22;1.80;;;;;13.90;94617.00;;;;7402156;19;20637;-79
2023/06/27 02:05:29;;;;;;;5.72;2.15;;;;;14.00;94607.00;;;;7401051;19;20140;-79
2023/06/27 02:08:03;;;;;;;2.80;2.00;;;;;14.00;94613.00;;;;7400760;19;20140;-79
2023/06/27 02:10:37;;;;;;;4.68;2.17;;;;;13.90;94604.00;;;;7403069;19;20162;-79
2023/06/27 02:13:06;;;;;;;7.68;2.40;;;;;14.00;94601.00;;;;7399779;19;20608;-79
2023/06/27 02:15:40;;;;;;;4.18;2.20;;;;;13.90;94609.00;;;;7396755;19;20133;-79
2023/06/27 02:18:15;;;;;;;3.30;2.08;;;;;13.80;94603.00;;;;7397389;19;20833;-78
2023/06/27 02:20:49;;;;;;;3.78;1.88;;;;;13.90;94599.00;;;;7396819;19;20775;-78
2023/06/27 02:23:25;;;;;;;5.55;1.90;;;;;13.90;94603.00;;;;7396242;19;20174;-78
2023/06/27 02:26:00;;;;;;;2.65;1.85;;;;;13.90;94604.00;;;;7395870;19;20136;-78
2023/06/27 02:28:35;;;;;;;5.22;2.05;;;;;14.00;94596.00;;;;7396681;19;20163;-79
2023/06/27 02:31:11;;;;;;;5.20;2.28;;;;;13.80;94597.00;;;;7396100;19;20144;-79
2023/06/27 02:33:46;;;;;;;5.93;2.55;;;;;13.80;94595.00;;;;7397234;19;20132;-78
2023/06/27 02:36:14;;;;;;;7.95;2.30;;;;;13.80;94590.00;;;;7395753;19;20143;-80
2023/06/27 02:38:49;;;;;;;8.13;2.53;;;;;13.90;94598.00;;;;7395136;19;20178;-78
2023/06/27 02:41:18;;;;;;;7.95;2.17;;;;;13.80;94597.00;;;;7398022;19;20487;-80
2023/06/27 02:43:52;;;;;;;9.77;2.33;;;;;13.80;94590.00;;;;7395499;19;20546;-80
2023/06/27 02:46:26;;;;;;;4.40;2.30;;;;;13.70;94587.00;;;;7396044;19;20534;-78
2023/06/27 02:49:02;;;;;;;8.23;2.45;;;;;13.80;94588.00;;;;7395177;19;20149;-79
2023/06/27 02:51:40;;;;;;;4.93;1.75;;;;;13.70;94587.00;;;;7396618;19;20147;-79
2023/06/27 02:54:15;;;;;;;5.75;2.28;;;;;13.60;94581.00;;;;7395538;19;20137;-79
2023/06/27 02:56:57;;;;;;;6.88;2.60;;;;;13.60;94580.00;;;;7394575;19;20268;-79
2023/06/27 02:59:25;;;;;;;6.32;2.30;;;;;13.50;94586.00;;;;7396254;19;20144;-80
2023/06/27 03:01:59;;;;;;;3.85;1.98;;;;;13.50;94588.00;;;;7394201;19;20643;-78
2023/06/27 03:04:27;;;;;;;6.30;2.25;;;;;13.50;94598.00;;;;7394003;19;20506;-80
2023/06/27 03:07:02;;;;;;;6.63;2.30;;;;;13.40;94606.00;;;;7397390;19;20145;-78
2023/06/27 03:09:31;;;;;;;7.28;2.40;;;;;13.30;94594.00;;;;7394811;19;20482;-78
2023/06/27 03:12:06;;;;;;;4.50;2.20;;;;;13.20;94602.00;;;;7396191;19;20533;-77
2023/06/27 03:14:42;;;;;;;3.95;1.92;;;;;13.40;94604.00;;;;7396660;19;20128;-77
2023/06/27 03:17:16;;;;;;;4.43;2.70;;;;;13.30;94591.00;;;;7394825;19;20136;-81
2023/06/27 03:19:50;;;;;;;5.80;2.28;;;;;13.20;94598.00;;;;7394764;19;20148;-81
2023/06/27 03:22:24;;;;;;;5.72;2.13;;;;;13.10;94589.00;;;;7394949;19;20517;-79
2023/06/27 03:24:52;;;;;;;4.78;2.33;;;;;13.20;94596.00;;;;7399324;19;20593;-81
2023/06/27 03:27:28;;;;;;;5.97;2.30;;;;;13.20;94594.00;;;;7398776;19;20139;-81
2023/06/27 03:30:04;;;;;;;6.97;2.20;;;;;13.30;94601.00;;;;7405738;19;20161;-78
2023/06/27 03:32:40;;;;;;;5.60;2.30;;;;;13.30;94585.00;;;;7409544;19;20505;-78
2023/06/27 03:35:14;;;;;;;6.43;1.92;;;;;13.20;94594.00;;;;7405039;19;20522;-78
2023/06/27 03:37:42;;;;;;;3.85;1.92;;;;;13.20;94593.00;;;;7407280;19;20178;-78
2023/06/27 03:40:16;;;;;;;5.07;2.42;;;;;13.20;94600.00;;;;7408766;19;20170;-79
2023/06/27 03:42:51;;;;;;;6.57;1.90;;;;;13.10;94593.00;;;;7407622;19;20137;-79
2023/06/27 03:45:27;;;;;;;3.83;2.20;;;;;13.20;94594.00;;;;7405824;19;20131;-79
2023/06/27 03:48:01;;;;;;;4.90;2.15;;;;;13.20;94599.00;;;;7408403;19;20159;-79
2023/06/27 03:50:36;;;;;;;5.82;2.33;;;;;13.30;94586.00;;;;7408182;19;20137;-79
2023/06/27 03:53:11;;;;;;;5.72;2.50;;;;;13.30;94591.00;;;;7408047;19;20173;-79
2023/06/27 03:55:51;;;;;;;4.28;1.98;;;;;13.30;94583.00;;;;7405206;19;20176;-79
2023/06/27 03:58:26;;;;;;;5.95;2.17;;;;;13.30;94596.00;;;;7408610;19;20479;-79
2023/06/27 04:01:00;;;;;;;3.55;1.90;;;;;13.30;94585.00;;;;7409285;19;20147;-80
2023/06/27 04:03:34;;;;;;;3.50;1.80;;;;;13.50;94580.00;;;;7405259;19;20153;-79
2023/06/27 04:06:02;;;;;;;4.95;2.15;;;;;13.30;94589.00;;;;7407892;19;20133;-81
2023/06/27 04:08:36;;;;;;;3.10;2.03;;;;;13.30;94600.00;;;;7404233;19;20152;-80
2023/06/27 04:11:10;;;;;;;4.40;2.22;;;;;13.40;94590.00;;;;7406029;19;20139;-82
2023/06/27 04:13:38;;;;;;;7.05;2.15;;;;;13.50;94594.00;;;;7407553;19;20496;-81
2023/06/27 04:16:14;;;;;;;5.22;2.28;;;;;13.40;94597.00;;;;7406104;19;20136;-81
2023/06/27 04:18:49;;;;;;;2.72;2.08;;;;;13.50;94592.00;;;;7403592;19;20135;-78
2023/06/27 04:21:23;;;;;;;3.33;2.10;;;;;13.50;94591.00;;;;7402526;19;20144;-80
2023/06/27 04:23:54;;;;;;;7.03;2.22;;;;;13.50;94586.00;;;;7402873;19;20197;-81
2023/06/27 04:26:28;;;;;;;4.45;2.20;;;;;13.40;94594.00;;;;7404454;19;20513;-78
2023/06/27 04:28:56;;;;;;;5.22;2.08;;;;;13.40;94595.00;;;;7405300;19;20147;-79
2023/06/27 04:31:30;;;;;;;9.48;2.17;;;;;13.40;94589.00;;;;7403351;19;20169;-79
2023/06/27 04:33:59;;;;;;;3.78;2.03;;;;;13.50;94599.00;;;;7399095;19;20162;-81
2023/06/27 04:36:41;;;;;;;3.15;1.80;;;;;13.50;94598.00;;;;7401413;19;20159;-81
2023/06/27 04:39:10;;;;;;;3.08;2.03;;;;;13.70;94586.00;;;;7394480;19;20612;-81
2023/06/27 04:41:44;;;;;;;3.47;2.10;;;;;13.70;94596.00;;;;7400549;19;20155;-81
2023/06/27 04:44:13;;;;;;;4.15;1.80;;;;;13.70;94602.00;;;;7397869;19;20152;-81
2023/06/27 04:46:54;;;;;;;3.75;1.88;;;;;13.80;94599.00;;;;7400182;19;20623;-80
2023/06/27 04:49:22;;;;;;;6.72;2.00;;;;;13.90;94601.00;;;;7399991;19;20136;-81
2023/06/27 04:51:56;;;;;;;5.88;2.28;;;;;14.00;94618.00;;;;7399712;19;20151;-80
2023/06/27 04:54:23;;;;;;;5.28;2.17;;;;;14.20;94611.00;;;;7398307;19;20145;-80
2023/06/27 04:57:04;;;;;;;9.38;2.10;;;;;14.20;94604.00;;;;7400231;19;20636;-79
2023/06/27 04:59:39;;;;;;;4.90;2.22;;;;;14.30;94603.00;;;;7400046;19;20140;-81
2023/06/27 05:02:13;;;;;;;4.20;1.98;;;;;14.40;94606.00;;;;7399059;19;20193;-79
2023/06/27 05:04:49;;;;;;;3.15;2.13;;;;;14.70;94608.00;;;;7396958;19;20151;-80
2023/06/27 05:07:17;;;;;;;5.00;2.30;;;;;14.80;94603.00;;;;7400811;19;20137;-79
2023/06/27 05:09:50;;;;;;;4.95;2.08;;;;;15.00;94601.00;;;;7399334;19;20633;-80
2023/06/27 05:12:25;;;;;;;5.20;2.00;;;;;15.10;94601.00;;;;7399056;19;20168;-81
2023/06/27 05:14:59;;;;;;;3.42;1.75;;;;;15.00;94607.00;;;;7400468;19;20149;-80
2023/06/27 05:17:27;;;;;;;5.15;1.95;;;;;15.00;94609.00;;;;7400279;19;20530;-81
2023/06/27 05:20:02;;;;;;;4.45;1.92;;;;;15.00;94604.00;;;;7400724;19;20132;-80
2023/06/27 05:22:40;;;;;;;3.22;1.80;;;;;14.90;94599.00;;;;7400729;19;20589;-80
2023/06/27 05:25:15;;;;;;;4.07;1.90;;;;;14.90;94599.00;;;;7400872;19;20141;-80
2023/06/27 05:27:42;;;;;;;2.63;1.80;;;;;15.00;94598.00;;;;7399009;19;20136;-81
2023/06/27 05:30:16;;;;;;;3.97;2.03;;;;;15.30;94597.00;;;;7398207;19;20136;-81
2023/06/27 05:32:44;;;;;;;3.28;1.90;;;;;15.30;94602.00;;;;7400408;19;20145;-82
2023/06/27 05:35:21;;;;;;;2.53;1.55;;;;;15.80;94599.00;;;;7400536;19;20128;-82
2023/06/27 05:37:55;;;;;;;3.35;2.05;;;;;15.90;94599.00;;;;7399314;19;20148;-82
2023/06/27 05:40:29;;;;;;;5.47;1.65;;;;;16.00;94593.00;;;;7399810;19;20141;-80
2023/06/27 05:43:04;;;;;;;6.28;2.08;;;;;15.70;94592.00;;;;7397936;19;20497;-79
2023/06/27 05:45:31;;;;;;;5.65;1.70;;;;;15.90;94609.00;;;;7398178;19;20153;-78
2023/06/27 05:48:08;;;;;;;8.85;2.40;;;;;15.90;94605.00;;;;7400137;19;20616;-79
2023/06/27 05:50:38;;;;;;;4.47;1.85;;;;;15.80;94613.00;;;;7397048;19;20168;-78
2023/06/27 05:53:13;;;;;;;4.28;1.92;;;;;15.80;94611.00;;;;7376508;19;20152;-78
2023/06/27 05:55:47;;;;;;;4.80;1.70;;;;;16.30;94608.00;;;;7384730;19;20192;-79
2023/06/27 05:58:29;;;;;;;4.93;1.80;;;;;16.20;94604.00;;;;7387827;19;20131;-79
2023/06/27 06:01:04;;;;;;;5.38;1.98;;;;;16.50;94612.00;;;;7387319;19;20593;-79
2023/06/27 06:03:43;;;;;;;3.53;1.55;;;;;16.60;94612.00;;;;7383947;19;20148;-79
2023/06/27 06:06:16;;;;;;;4.03;1.55;;;;;16.80;94600.00;;;;7386294;19;20157;-79
2023/06/27 06:08:51;;;;;;;4.28;1.70;;;;;16.50;94593.00;;;;7385453;19;20151;-79
2023/06/27 06:11:26;;;;;;;3.97;2.10;;;;;16.90;94597.00;;;;7385014;19;20592;-78
2023/06/27 06:14:01;;;;;;;6.50;1.92;;;;;16.90;94594.00;;;;7387790;19;20164;-78
2023/06/27 06:16:36;;;;;;;3.08;1.80;;;;;16.60;94599.00;;;;7389408;19;20167;-79
2023/06/27 06:19:11;;;;;;;4.57;1.80;;;;;17.20;94588.00;;;;7385060;19;20133;-79
2023/06/27 06:21:46;;;;;;;6.00;1.88;;;;;17.20;94588.00;;;;7384338;19;20128;-79
2023/06/27 06:24:16;;;;;;;5.90;1.95;;;;;17.50;94608.00;;;;7385454;19;20149;-78
2023/06/27 06:26:52;;;;;;;7.43;1.80;;;;;17.10;94609.00;;;;7387976;19;20188;-79
2023/06/27 06:29:19;;;;;;;2.85;1.83;;;;;17.20;94608.00;;;;7391622;19;20577;-80
2023/06/27 06:31:54;;;;;;;5.38;2.22;;;;;17.50;94597.00;;;;7393232;19;20593;-80
2023/06/27 06:34:21;;;;;;;2.78;1.75;;;;;17.90;94596.00;;;;7389631;19;20609;-79
2023/06/27 06:36:56;;;;;;;6.47;2.40;;;;;18.20;94598.00;;;;7389998;19;20167;-78
2023/06/27 06:39:29;;;;;;;3.97;2.10;;;;;18.30;94592.00;;;;7379551;19;20121;-79
2023/06/27 06:42:04;;;;;;;3.58;1.90;;;;;18.20;94592.00;;;;7376987;19;20213;-78
2023/06/27 06:44:37;;;;;;;6.78;1.88;;;;;18.50;94590.00;;;;7384994;19;20167;-78
2023/06/27 06:47:05;;;;;;;5.22;1.92;;;;;19.10;94593.00;;;;7385001;19;20144;-78
2023/06/27 06:49:40;;;;;;;7.15;1.77;;;;;19.50;94601.00;;;;7384469;19;20139;-78
2023/06/27 06:52:08;;;;;;;7.40;1.83;;;;;19.30;94605.00;;;;7384705;19;20623;-78
2023/06/27 06:54:38;;;;;;;2.33;1.73;;;;;18.80;94595.00;;;;7387324;19;20165;-78
2023/06/27 06:57:19;;;;;;;4.38;1.92;;;;;19.10;94592.00;;;;7386487;19;20156;-79
2023/06/27 06:59:54;;;;;;;3.05;2.03;;;;;19.20;94593.00;;;;7386277;19;20136;-78
2023/06/27 07:02:28;;;;;;;4.97;2.00;;;;;19.50;94591.00;;;;7381290;19;20674;-78
2023/06/27 07:05:04;;;;;;;3.03;1.75;;;;;19.50;94589.00;;;;7381316;19;20162;-78
2023/06/27 07:07:32;;;;;;;3.83;1.83;;;;;19.70;94594.00;;;;7390607;19;20141;-77
2023/06/27 07:10:00;;;;;;;3.70;1.90;;;;;19.90;94604.00;;;;7388777;19;20612;-78
2023/06/27 07:12:35;;;;;;;4.70;1.92;;;;;20.30;94595.00;;;;7389491;19;20618;-76
2023/06/27 07:15:03;;;;;;;3.30;1.75;;;;;20.20;94602.00;;;;7386450;19;20148;-76
2023/06/27 07:17:32;;;;;;;7.05;1.70;;;;;19.90;94602.00;;;;7389609;19;20619;-79
2023/06/27 07:20:08;;;;;;;4.30;2.15;;;;;19.90;94589.00;;;;7384709;19;20163;-76
2023/06/27 07:22:43;;;;;;;4.88;2.13;;;;;20.00;94598.00;;;;7386370;19;20128;-77
2023/06/27 07:25:18;;;;;;;4.95;2.10;;;;;20.00;94600.00;;;;7384565;19;20152;-77
2023/06/27 07:27:52;;;;;;;3.95;1.88;;;;;20.50;94595.00;;;;7389181;19;20163;-78
2023/06/27 07:30:20;;;;;;;5.03;1.95;;;;;20.30;94592.00;;;;7383087;19;22737;-78
2023/06/27 07:32:55;;;;;;;5.10;2.20;;;;;20.50;94594.00;;;;7381714;19;20516;-77
2023/06/27 07:35:22;;;;;;;4.60;2.00;;;;;20.00;94598.00;;;;7392556;19;21046;-78
2023/06/27 07:37:57;;;;;;;3.92;2.10;;;;;20.20;94614.00;;;;7395883;19;20132;-76
2023/06/27 07:40:30;;;;;;;3.95;2.03;;;;;20.60;94601.00;;;;7395457;19;20148;-76
2023/06/27 07:43:05;;;;;;;4.75;2.17;;;;;21.20;94592.00;;;;7392629;19;20154;-76
2023/06/27 07:45:33;;;;;;;4.00;2.00;;;;;22.00;94594.00;;;;7393702;19;20137;-78
2023/06/27 07:48:06;;;;;;;2.63;2.03;;;;;21.90;94599.00;;;;7394653;19;20152;-78
2023/06/27 07:50:34;;;;;;;3.35;1.90;;;;;22.10;94608.00;;;;7394301;19;20128;-79
2023/06/27 07:53:09;;;;;;;4.10;1.73;;;;;21.60;94616.00;;;;7394978;19;20159;-77
2023/06/27 07:55:36;;;;;;;4.28;2.25;;;;;20.80;94620.00;;;;7392273;19;20180;-76
2023/06/27 07:58:11;;;;;;;4.82;2.28;;;;;19.80;94602.00;;;;7393257;19;20152;-76
2023/06/27 08:00:44;;;;;;;4.75;2.00;;;;;19.40;94627.00;;;;7393866;19;20138;-76
2023/06/27 08:03:19;;;;;;;2.80;2.17;;;;;18.90;94621.00;;;;7393980;19;20144;-78
2023/06/27 08:05:55;;;;;;;6.28;1.92;;;;;18.80;94617.00;;;;7387972;19;20647;-79
2023/06/27 08:08:24;;;;;;;5.13;2.00;;;;;19.30;94598.00;;;;7393421;19;20144;-79
2023/06/27 08:10:57;;;;;;;6.15;2.25;;;;;19.10;94617.00;;;;7393314;19;20152;-78
2023/06/27 08:13:25;;;;;;;4.65;1.80;;;;;18.50;94617.00;;;;7393311;19;20136;-77
2023/06/27 08:16:00;;;;;;;6.05;2.42;;;;;18.30;94607.00;;;;7400238;19;20125;-78
2023/06/27 08:18:27;;;;;;;4.68;2.55;;;;;18.40;94615.00;;;;7400394;19;20152;-77
2023/06/27 08:21:01;;;;;;;7.20;2.20;;;;;18.90;94574.00;;;;7399847;19;20162;-77
2023/06/27 08:23:29;;;;;;;4.70;2.10;;;;;20.10;94573.00;;;;7399179;19;20149;-79
2023/06/27 08:26:03;;;;;;;4.35;2.25;;;;;20.90;94579.00;;;;7397961;19;20140;-79
2023/06/27 08:28:32;;;;;;;5.50;2.40;;;;;21.40;94570.00;;;;7402752;19;20175;-79
2023/06/27 08:31:06;;;;;;;5.88;2.05;;;;;21.20;94558.00;;;;7402069;19;20136;-78
2023/06/27 08:33:41;;;;;;;5.03;2.33;;;;;22.30;94555.00;;;;7400571;19;20168;-76
2023/06/27 08:36:15;;;;;;;4.55;2.40;;;;;23.30;94552.00;;;;7400782;19;20610;-76
2023/06/27 08:38:43;;;;;;;7.35;2.40;;;;;23.70;94544.00;;;;7399232;19;20153;-77
2023/06/27 08:41:17;;;;;;;3.65;2.28;;;;;24.20;94564.00;;;;7396490;19;20585;-79
2023/06/27 08:43:45;;;;;;;7.38;2.22;;;;;23.50;94575.00;;;;7401697;19;20159;-79
2023/06/27 08:46:23;;;;;;;4.10;2.22;;;;;23.20;94573.00;;;;7400813;19;20208;-78
2023/06/27 08:48:55;;;;;;;3.35;2.00;;;;;22.40;94575.00;;;;7400226;19;20213;-78
2023/06/27 08:51:31;;;;;;;3.33;1.95;;;;;21.50;94579.00;;;;7399152;19;20145;-77
2023/06/27 08:54:15;;;;;;;8.95;3.30;;;;;21.30;94575.00;;;;7398620;19;20228;-79
2023/06/27 08:56:56;;;;;;;3.35;2.17;;;;;21.30;94572.00;;;;7396716;19;20212;-78
2023/06/27 08:59:37;;;;;;;6.07;2.17;;;;;21.30;94580.00;;;;7398640;19;20133;-77
2023/06/27 09:02:13;;;;;;;8.90;2.28;;;;;20.50;94575.00;;;;7397564;19;20231;-78
2023/06/27 09:04:47;;;;;;;6.43;2.30;;;;;20.40;94558.00;;;;7394684;19;20149;-79
2023/06/27 09:07:15;;;;;;;4.75;2.30;;;;;21.50;94560.00;;;;7399764;19;20129;-77
2023/06/27 09:09:50;;;;;;;3.20;1.90;;;;;21.90;94548.00;;;;7397499;19;20164;-79
2023/06/27 09:12:19;;;;;;;5.22;2.20;;;;;23.00;94546.00;;;;7400790;19;20585;-79
2023/06/27 09:14:53;;;;;;;2.83;2.03;;;;;23.50;94548.00;;;;7398602;19;20431;-78
2023/06/27 09:17:22;;;;;;;4.15;2.38;;;;;22.50;94560.00;;;;7399997;19;20164;-79
2023/06/27 09:19:57;;;;;;;8.82;2.47;;;;;22.20;94563.00;;;;7398507;19;20237;-78
2023/06/27 09:22:32;;;;;;;4.43;2.20;;;;;20.40;94566.00;;;;7400029;19;20148;-80
2023/06/27 09:25:11;;;;;;;3.13;2.03;;;;;20.70;94509.00;;;;7397703;19;20144;-79
2023/06/27 09:27:39;;;;;;;4.85;2.15;;;;;20.70;94563.00;;;;7400903;19;20650;-79
2023/06/27 09:30:15;;;;;;;9.23;2.42;;;;;20.80;94567.00;;;;7400082;19;20149;-80
2023/06/27 09:32:57;;;;;;;3.55;2.00;;;;;20.90;94559.00;;;;7399919;19;20908;-77
2023/06/27 09:35:31;;;;;;;5.43;2.17;;;;;21.20;94565.00;;;;7398442;19;20196;-77
2023/06/27 09:38:08;;;;;;;5.10;2.08;;;;;21.00;94560.00;;;;7397865;19;20197;-81
2023/06/27 09:40:48;;;;;;;3.40;2.20;;;;;20.50;94557.00;;;;7397873;19;20515;-79
2023/06/27 09:43:19;;;;;;;4.25;2.28;;;;;20.00;94564.00;;;;7395286;19;20155;-77
2023/06/27 09:45:58;;;;;;;6.50;2.40;;;;;20.90;94572.00;;;;7394945;19;20184;-78
2023/06/27 09:48:34;;;;;;;8.63;2.45;;;;;21.00;94567.00;;;;7397779;19;20152;-80
2023/06/27 09:51:07;;;;;;;6.00;2.03;;;;;21.20;94573.00;;;;7398066;19;20220;-78
2023/06/27 09:53:43;;;;;;;4.50;2.45;;;;;21.10;94574.00;;;;7397233;19;20166;-78
2023/06/27 09:56:12;;;;;;;4.63;2.28;;;;;21.10;94577.00;;;;7396496;19;20158;-79
2023/06/27 09:58:45;;;;;;;4.47;2.10;;;;;21.20;94575.00;;;;7398225;19;20208;-78
2023/06/27 10:01:15;;;;;;;4.25;1.88;;;;;21.70;94575.00;;;;7395474;19;20149;-79
2023/06/27 10:03:50;;;;;;;8.38;2.78;;;;;21.90;94577.00;;;;7397226;19;20680;-79
2023/06/27 10:06:25;;;;;;;3.78;2.10;;;;;22.00;94565.00;;;;7401247;19;20142;-79
2023/06/27 10:08:54;;;;;;;4.35;2.15;;;;;22.50;94568.00;;;;7400318;19;20152;-80
2023/06/27 10:11:29;;;;;;;3.95;2.30;;;;;22.40;94575.00;;;;7402929;19;20132;-81
2023/06/27 10:13:58;;;;;;;3.10;2.20;;;;;22.60;94578.00;;;;7403641;19;20147;-79
2023/06/27 10:16:33;;;;;;;2.75;2.00;;;;;22.00;94566.00;;;;7402147;19;20139;-82
2023/06/27 10:19:09;;;;;;;6.95;2.53;;;;;21.80;94574.00;;;;7397731;19;20623;-79
2023/06/27 10:21:48;;;;;;;3.80;2.22;;;;;22.00;94578.00;;;;7402538;19;20501;-77
2023/06/27 10:24:19;;;;;;;6.30;2.72;;;;;21.80;94572.00;;;;7399752;19;20181;-80
2023/06/27 10:27:02;;;;;;;4.80;2.10;;;;;21.70;94571.00;;;;7398779;19;20136;-81
2023/06/27 10:29:33;;;;;;;4.47;2.58;;;;;21.80;94569.00;;;;7399809;19;20135;-77
2023/06/27 10:32:08;;;;;;;3.17;2.40;;;;;21.70;94566.00;;;;7396947;19;20216;-77
2023/06/27 10:34:44;;;;;;;4.15;2.00;;;;;21.90;94576.00;;;;7397613;19;21205;-78
2023/06/27 10:37:21;;;;;;;3.75;2.25;;;;;21.70;94576.00;;;;7394007;19;20137;-78
2023/06/27 10:39:57;;;;;;;4.43;2.13;;;;;21.60;94578.00;;;;7395405;19;20613;-78
2023/06/27 10:42:33;;;;;;;6.88;2.22;;;;;21.50;94569.00;;;;7395576;19;20207;-77
2023/06/27 10:45:11;;;;;;;4.88;2.28;;;;;21.70;94559.00;;;;7394680;19;20144;-79
2023/06/27 10:47:45;;;;;;;8.27;2.45;;;;;21.60;94563.00;;;;7395766;19;20129;-79
2023/06/27 10:50:22;;;;;;;2.60;2.03;;;;;22.20;94574.00;;;;7401231;19;20583;-78
2023/06/27 10:53:04;;;;;;;2.45;2.10;;;;;22.10;94570.00;;;;7397855;19;20140;-80
2023/06/27 10:55:55;;;;;;;9.98;2.38;;;;;21.60;94568.00;;;;7399332;19;20145;-80
2023/06/27 10:58:44;;;;;;;4.10;2.10;;;;;22.60;94573.00;;;;7400900;19;20616;-81
2023/06/27 11:01:20;;;;;;;5.70;2.08;;;;;22.40;94571.00;;;;7392584;19;20183;-77
2023/06/27 11:03:56;;;;;;;3.63;2.20;;;;;22.20;94575.00;;;;7388694;19;20141;-79
2023/06/27 11:06:41;;;;;;;6.22;2.55;;;;;22.10;94582.00;;;;7388482;19;20156;-77
2023/06/27 11:09:17;;;;;;;5.13;2.50;;;;;21.50;94587.00;;;;7391479;19;20133;-80
2023/06/27 11:12:14;;;;;;;9.00;2.63;;;;;20.50;94583.00;;;;7391722;19;20156;-77
2023/06/27 11:14:46;;;;;;;4.45;2.40;;;;;20.70;94580.00;;;;7390213;19;20145;-78
2023/06/27 11:17:22;;;;;;;3.08;2.00;;;;;21.20;94582.00;;;;7389305;19;20196;-80
2023/06/27 11:19:58;;;;;;;7.80;2.83;;;;;20.40;94575.00;;;;7390377;19;20152;-79
2023/06/27 11:22:28;;;;;;;6.22;2.60;;;;;20.40;94568.00;;;;7396805;19;20145;-81
2023/06/27 11:25:17;;;;;;;4.75;2.40;;;;;21.10;94574.00;;;;7397824;19;20148;-81
2023/06/27 11:27:46;;;;;;;4.63;2.15;;;;;22.20;94562.00;;;;7399963;19;20154;-81
2023/06/27 11:30:25;;;;;;;8.15;2.50;;;;;22.50;94552.00;;;;7396191;19;20152;-77
2023/06/27 11:32:56;;;;;;;3.40;2.10;;;;;22.80;94537.00;;;;7393388;19;20479;-76
2023/06/27 11:35:31;;;;;;;7.05;2.92;;;;;22.40;94567.00;;;;7390510;19;20128;-79
2023/06/27 11:38:08;;;;;;;8.00;2.35;;;;;23.10;94551.00;;;;7389885;19;20140;-77
2023/06/27 11:40:36;;;;;;;3.97;2.50;;;;;23.60;94552.00;;;;7390612;19;20519;-77
2023/06/27 11:43:08;;;;;;;9.18;2.58;;;;;24.10;94528.00;;;;7393093;19;20204;-76
2023/06/27 11:45:52;;;;;;;3.92;2.28;;;;;25.50;94552.00;;;;7389247;19;20151;-76
2023/06/27 11:48:20;;;;;;;5.32;3.38;;;;;23.10;94564.00;;;;7394452;19;20196;-79
2023/06/27 11:51:06;;;;;;;6.43;2.33;;;;;22.90;94562.00;;;;7397700;19;20136;-73
2023/06/27 11:53:35;;;;;;;5.18;2.42;;;;;22.10;94546.00;;;;7396438;19;20208;-76
2023/06/27 11:56:17;;;;;;;5.65;2.35;;;;;23.10;94551.00;;;;7395985;19;20148;-74
2023/06/27 11:58:52;;;;;;;6.45;2.38;;;;;24.20;94509.00;;;;7395381;19;20618;-72
2023/06/27 12:01:27;;;;;;;8.02;2.50;;;;;25.60;94517.00;;;;7393777;19;20180;-75
2023/06/27 12:03:55;;;;;;;3.20;2.40;;;;;25.40;94515.00;;;;7396585;19;20148;-78
2023/06/27 12:06:32;;;;;;;6.70;2.85;;;;;24.90;94511.00;;;;7396254;19;20133;-75
2023/06/27 12:08:59;;;;;;;3.97;2.38;;;;;26.70;94509.00;;;;7397990;19;20124;-75
2023/06/27 12:11:35;;;;;;;5.00;2.53;;;;;27.10;94526.00;;;;7396822;19;20161;-73
2023/06/27 12:14:05;;;;;;;6.80;2.58;;;;;23.80;94508.00;;;;7395301;19;20133;-75
2023/06/27 12:16:39;;;;;;;3.95;2.47;;;;;24.50;94491.00;;;;7393851;19;20144;-75
2023/06/27 12:19:10;;;;;;;5.32;2.25;;;;;26.00;94530.00;;;;7398269;19;20137;-75
2023/06/27 12:21:45;;;;;;;4.82;2.83;;;;;24.70;94533.00;;;;7395302;19;20220;-76
2023/06/27 12:24:13;;;;;;;7.28;2.80;;;;;23.40;94487.00;;;;7397115;19;20570;-75
2023/06/27 12:26:47;;;;;;;5.25;2.40;;;;;24.70;94485.00;;;;7393093;19;20172;-74
2023/06/27 12:29:15;;;;;;;5.00;2.72;;;;;24.90;94489.00;;;;7395056;19;20519;-75
2023/06/27 12:31:50;;;;;;;3.67;2.08;;;;;23.30;94499.00;;;;7394718;19;20145;-75
2023/06/27 12:34:19;;;;;;;7.13;2.55;;;;;22.90;94492.00;;;;7395872;19;20220;-77
2023/06/27 12:36:54;;;;;;;5.85;2.25;;;;;23.90;94488.00;;;;7394955;19;20174;-74
2023/06/27 12:39:28;;;;;;;7.25;2.50;;;;;24.70;94515.00;;;;7394270;19;20140;-75
2023/06/27 12:42:02;;;;;;;4.00;2.42;;;;;21.70;94515.00;;;;7393376;19;20184;-77
2023/06/27 12:44:36;;;;;;;4.10;1.90;;;;;22.40;94479.00;;;;7396888;19;20132;-79
2023/06/27 12:47:04;;;;;;;5.05;2.15;;;;;22.30;94475.00;;;;7393198;19;20144;-78
2023/06/27 12:49:39;;;;;;;5.15;2.40;;;;;24.90;94465.00;;;;7393542;19;20508;-78
2023/06/27 12:52:07;;;;;;;4.05;2.40;;;;;26.30;94452.00;;;;7393297;19;20141;-77